createdAt,value
2019-02-22T00:01:18.006Z,28.63
2019-02-22T00:03:50.329Z,28.30
2019-02-22T00:06:22.747Z,28.83
2019-02-22T00:08:55.208Z,26.07
2019-02-22T00:11:27.565Z,28.40
2019-02-22T00:13:59.961Z,28.07
2019-02-22T00:16:32.517Z,27.37
2019-02-22T00:19:04.935Z,27.77
2019-02-22T00:21:37.372Z,28.23
2019-02-22T00:24:09.765Z,28.40
2019-02-22T00:26:42.180Z,27.07
2019-02-22T00:29:14.588Z,27.57
2019-02-22T00:31:47.017Z,24.50
2019-02-22T00:34:19.432Z,25.97
2019-02-22T00:36:51.933Z,27.00
2019-02-22T00:42:14.636Z,25.40
2019-02-22T00:44:47.031Z,28.03
2019-02-22T00:47:19.479Z,26.23
2019-02-22T00:49:52.929Z,24.53
2019-02-22T00:52:25.347Z,27.90
2019-02-22T00:54:57.741Z,26.87
2019-02-22T00:57:30.180Z,26.97
2019-02-22T01:00:03.653Z,27.50
2019-02-22T01:02:37.239Z,25.70
2019-02-22T01:05:09.628Z,27.30
2019-02-22T01:07:42.042Z,27.13
2019-02-22T01:10:14.436Z,27.30
2019-02-22T01:12:46.857Z,26.67
2019-02-22T01:15:19.190Z,25.97
2019-02-22T01:17:51.621Z,27.17
2019-02-22T01:20:24.009Z,27.33
2019-02-22T01:22:56.461Z,25.43
2019-02-22T01:25:28.839Z,26.63
2019-02-22T01:28:01.248Z,25.13
2019-02-22T01:30:33.640Z,20.73
2019-02-22T01:33:06.058Z,23.80
2019-02-22T01:35:38.399Z,23.60
2019-02-22T01:38:10.851Z,23.20
2019-02-22T01:40:44.235Z,22.03
2019-02-22T01:43:16.729Z,22.73
2019-02-22T01:45:49.145Z,23.77
2019-02-22T01:48:21.563Z,24.00
2019-02-22T01:50:53.985Z,24.23
2019-02-22T01:53:26.399Z,24.23
2019-02-22T01:55:58.809Z,25.50
2019-02-22T01:58:31.212Z,24.63
2019-02-22T02:01:03.638Z,26.43
2019-02-22T02:03:36.129Z,23.67
2019-02-22T02:06:08.517Z,23.17
2019-02-22T02:08:40.937Z,22.90
2019-02-22T02:11:13.336Z,23.93
2019-02-22T02:13:45.763Z,23.03
2019-02-22T02:16:18.160Z,24.63
2019-02-22T02:18:50.505Z,23.80
2019-02-22T02:21:22.904Z,23.13
2019-02-22T02:23:55.324Z,24.87
2019-02-22T02:26:27.717Z,24.17
2019-02-22T02:29:00.134Z,23.10
2019-02-22T02:31:32.526Z,22.77
2019-02-22T02:34:04.947Z,23.10
2019-02-22T02:36:37.383Z,23.27
2019-02-22T02:39:09.790Z,23.47
2019-02-22T02:41:43.555Z,24.33
2019-02-22T02:44:15.986Z,24.03
2019-02-22T02:46:48.373Z,24.03
2019-02-22T02:49:20.784Z,22.60
2019-02-22T02:51:53.109Z,23.10
2019-02-22T02:54:25.637Z,25.83
2019-02-22T02:56:58.031Z,22.83
2019-02-22T02:59:30.372Z,22.60
2019-02-22T03:02:04.453Z,24.87
2019-02-22T03:04:36.924Z,22.77
2019-02-22T03:07:31.025Z,23.67
2019-02-22T03:10:03.922Z,23.27
2019-02-22T03:12:36.392Z,25.00
2019-02-22T03:15:10.722Z,21.20
2019-02-22T03:17:43.178Z,21.00
2019-02-22T03:20:16.662Z,23.73
2019-02-22T03:22:50.143Z,23.03
2019-02-22T03:25:22.574Z,22.20
2019-02-22T03:27:55.026Z,21.07
2019-02-22T03:30:27.451Z,22.57
2019-02-22T03:32:59.895Z,21.80
2019-02-22T03:35:32.735Z,23.70
2019-02-22T03:38:05.986Z,22.33
2019-02-22T03:40:38.534Z,21.57
2019-02-22T03:43:10.923Z,23.23
2019-02-22T03:45:43.356Z,24.00
2019-02-22T03:48:15.738Z,23.17
2019-02-22T03:50:48.163Z,24.93
2019-02-22T03:53:24.255Z,25.23
2019-02-22T03:55:56.593Z,26.00
2019-02-22T03:58:28.980Z,26.33
2019-02-22T04:01:01.392Z,23.40
2019-02-22T04:03:33.859Z,25.90
2019-02-22T04:06:06.279Z,24.43
2019-02-22T04:08:38.606Z,23.60
2019-02-22T04:11:11.025Z,24.47
2019-02-22T04:13:43.437Z,25.80
2019-02-22T04:16:15.853Z,25.80
2019-02-22T04:18:48.247Z,25.80
2019-02-22T04:21:20.665Z,27.00
2019-02-22T04:23:53.084Z,25.17
2019-02-22T04:26:25.500Z,27.27
2019-02-22T04:28:59.025Z,27.10
2019-02-22T04:31:31.463Z,26.20
2019-02-22T04:34:03.919Z,25.13
2019-02-22T04:36:36.374Z,27.83
2019-02-22T04:39:08.780Z,29.53
2019-02-22T04:41:41.205Z,25.80
2019-02-22T04:44:13.581Z,26.20
2019-02-22T04:46:46.027Z,25.63
2019-02-22T04:49:18.407Z,28.33
2019-02-22T04:51:50.834Z,28.83
2019-02-22T04:54:23.236Z,24.17
2019-02-22T04:56:55.649Z,23.87
2019-02-22T04:59:28.043Z,28.67
2019-02-22T05:02:00.385Z,27.13
2019-02-22T05:04:32.770Z,29.00
2019-02-22T05:07:05.595Z,27.80
2019-02-22T05:09:38.004Z,27.87
2019-02-22T05:12:11.355Z,27.53
2019-02-22T05:14:43.934Z,29.93
2019-02-22T05:17:16.359Z,29.57
2019-02-22T05:19:48.759Z,43.73
2019-02-22T05:22:21.267Z,39.00
2019-02-22T05:24:53.676Z,35.30
2019-02-22T05:27:26.171Z,30.10
2019-02-22T05:29:58.562Z,28.33
2019-02-22T05:32:30.984Z,30.13
2019-02-22T05:35:03.408Z,32.33
2019-02-22T05:37:35.824Z,29.67
2019-02-22T05:40:08.274Z,32.67
2019-02-22T05:42:40.682Z,31.10
2019-02-22T05:45:14.135Z,30.80
2019-02-22T05:47:50.244Z,29.90
2019-02-22T05:50:22.738Z,27.13
2019-02-22T05:52:56.296Z,28.10
2019-02-22T05:55:28.688Z,27.10
2019-02-22T05:58:01.103Z,28.40
2019-02-22T06:00:33.482Z,26.57
2019-02-22T06:03:05.980Z,30.03
2019-02-22T06:05:38.485Z,25.07
2019-02-22T06:08:10.904Z,26.50
2019-02-22T06:10:43.899Z,25.67
2019-02-22T06:13:16.422Z,27.83
2019-02-22T06:15:48.804Z,25.13
2019-02-22T06:18:23.129Z,26.97
2019-02-22T06:20:55.533Z,28.03
2019-02-22T06:23:27.955Z,29.87
2019-02-22T06:26:00.962Z,28.10
2019-02-22T06:28:33.372Z,31.23
2019-02-22T06:31:05.790Z,31.57
2019-02-22T06:33:38.189Z,31.43
2019-02-22T06:36:10.639Z,30.50
2019-02-22T06:38:46.421Z,25.37
2019-02-22T06:41:17.510Z,27.13
2019-02-22T06:43:49.944Z,24.53
2019-02-22T06:46:22.329Z,27.23
2019-02-22T06:48:54.769Z,30.07
2019-02-22T06:51:27.163Z,27.93
2019-02-22T06:53:59.614Z,27.17
2019-02-22T06:56:32.006Z,28.20
2019-02-22T06:59:04.445Z,28.70
2019-02-22T07:01:36.818Z,27.47
2019-02-22T07:04:09.221Z,24.13
2019-02-22T07:06:41.645Z,28.27
2019-02-22T07:09:14.062Z,28.77
2019-02-22T07:11:58.802Z,26.43
2019-02-22T07:14:31.396Z,27.87
2019-02-22T07:17:03.875Z,26.73
2019-02-22T07:19:36.270Z,30.10
2019-02-22T07:22:08.689Z,34.53
2019-02-22T07:24:41.083Z,32.57
2019-02-22T07:27:13.524Z,31.57
2019-02-22T07:29:45.923Z,29.83
2019-02-22T07:32:18.283Z,26.27
2019-02-22T07:34:52.319Z,27.60
2019-02-22T07:37:24.882Z,28.20
2019-02-22T07:39:57.325Z,27.47
2019-02-22T07:42:29.721Z,30.07
2019-02-22T07:45:02.169Z,30.93
2019-02-22T07:47:34.675Z,34.03
2019-02-22T07:50:09.581Z,31.77
2019-02-22T07:52:42.098Z,27.77
2019-02-22T07:55:14.545Z,27.83
2019-02-22T07:57:47.089Z,29.37
2019-02-22T08:00:19.519Z,30.67
2019-02-22T08:02:52.119Z,30.10
2019-02-22T08:05:25.514Z,33.40
2019-02-22T08:07:59.542Z,32.07
2019-02-22T08:10:32.061Z,32.90
2019-02-22T08:13:04.482Z,32.13
2019-02-22T08:15:36.912Z,36.30
2019-02-22T08:18:11.830Z,33.17
2019-02-22T08:20:44.264Z,34.13
2019-02-22T08:23:18.030Z,35.27
2019-02-22T08:25:50.507Z,36.23
2019-02-22T08:28:22.976Z,28.63
2019-02-22T08:30:55.403Z,26.67
2019-02-22T08:33:27.815Z,27.80
2019-02-22T08:36:00.314Z,25.13
2019-02-22T08:38:32.741Z,27.57
2019-02-22T08:41:05.185Z,28.47
2019-02-22T08:43:37.605Z,28.57
2019-02-22T08:46:10.041Z,28.37
2019-02-22T08:48:42.445Z,27.73
2019-02-22T08:51:14.876Z,25.20
2019-02-22T08:53:48.455Z,27.23
2019-02-22T08:56:20.891Z,22.37
2019-02-22T08:58:54.457Z,21.40
2019-02-22T09:01:28.241Z,24.90
2019-02-22T09:04:03.216Z,23.00
2019-02-22T09:06:35.586Z,24.70
2019-02-22T09:09:08.403Z,24.40
2019-02-22T09:11:41.631Z,24.47
2019-02-22T09:14:14.120Z,25.23
2019-02-22T09:16:46.670Z,24.57
2019-02-22T09:19:19.110Z,24.90
2019-02-22T09:21:51.564Z,23.10
2019-02-22T09:24:23.994Z,20.70
2019-02-22T09:26:56.412Z,21.57
2019-02-22T09:29:28.864Z,20.07
2019-02-22T09:32:01.290Z,21.67
2019-02-22T09:34:33.824Z,17.67
2019-02-22T09:37:06.394Z,19.07
2019-02-22T09:39:38.804Z,17.33
2019-02-22T09:42:11.240Z,18.20
2019-02-22T09:44:43.644Z,17.77
2019-02-22T09:47:15.980Z,18.20
2019-02-22T09:49:49.452Z,14.30
2019-02-22T09:52:21.933Z,11.77
2019-02-22T09:54:54.326Z,9.77
2019-02-22T09:57:26.770Z,9.60
2019-02-22T09:59:59.110Z,9.10
2019-02-22T10:02:31.527Z,8.60
2019-02-22T10:05:04.099Z,10.17
2019-02-22T10:07:36.631Z,8.57
2019-02-22T10:10:09.860Z,8.20
2019-02-22T10:12:42.246Z,8.37
2019-02-22T10:15:15.611Z,7.33
2019-02-22T10:17:48.102Z,7.50
2019-02-22T10:20:20.458Z,7.53
2019-02-22T10:22:52.846Z,7.13
2019-02-22T10:25:25.241Z,7.47
2019-02-22T10:27:57.659Z,6.87
2019-02-22T10:30:30.065Z,7.57
2019-02-22T10:33:02.496Z,8.00
2019-02-22T10:35:34.898Z,7.30
2019-02-22T10:38:07.299Z,6.53
2019-02-22T10:40:39.802Z,6.03
2019-02-22T10:43:12.215Z,7.30
2019-02-22T10:45:44.760Z,7.70
2019-02-22T10:48:17.404Z,7.00
2019-02-22T10:50:49.784Z,7.90
2019-02-22T10:53:22.226Z,8.90
2019-02-22T10:55:54.615Z,8.17
2019-02-22T10:58:27.021Z,8.20
2019-02-22T11:00:59.449Z,7.43
2019-02-22T11:03:32.989Z,7.93
2019-02-22T11:06:05.422Z,8.77
2019-02-22T11:08:37.837Z,7.47
2019-02-22T11:11:10.220Z,7.90
2019-02-22T11:13:42.641Z,7.90
2019-02-22T11:16:15.070Z,7.77
2019-02-22T11:18:54.886Z,7.73
2019-02-22T11:21:27.569Z,7.30
2019-02-22T11:24:00.146Z,6.10
2019-02-22T11:26:32.787Z,6.17
2019-02-22T11:29:05.321Z,6.80
2019-02-22T11:31:37.826Z,5.77
2019-02-22T11:34:10.518Z,5.63
2019-02-22T11:36:44.973Z,5.37
2019-02-22T11:39:17.626Z,5.53
2019-02-22T11:41:50.145Z,4.83
2019-02-22T11:44:22.566Z,4.70
2019-02-22T11:46:55.615Z,4.67
2019-02-22T11:49:28.071Z,4.77
2019-02-22T11:52:01.697Z,4.50
2019-02-22T11:54:34.178Z,4.97
2019-02-22T11:57:06.736Z,4.43
2019-02-22T11:59:39.190Z,5.13
2019-02-22T12:02:11.754Z,5.07
2019-02-22T12:04:44.527Z,5.33
2019-02-22T12:07:16.902Z,4.93
2019-02-22T12:09:49.477Z,5.07
2019-02-22T12:12:22.052Z,4.50
2019-02-22T12:14:55.494Z,4.80
2019-02-22T12:17:28.037Z,5.13
2019-02-22T12:20:00.550Z,6.10
2019-02-22T12:22:34.821Z,5.13
2019-02-22T12:25:07.592Z,5.13
2019-02-22T12:27:40.146Z,5.00
2019-02-22T12:30:13.949Z,5.30
2019-02-22T12:32:46.414Z,5.90
2019-02-22T12:35:18.846Z,5.17
2019-02-22T12:37:51.567Z,5.33
2019-02-22T12:40:24.390Z,5.13
2019-02-22T12:42:56.872Z,5.87
2019-02-22T12:45:29.275Z,4.87
2019-02-22T12:48:01.660Z,8.17
2019-02-22T12:50:34.074Z,5.63
2019-02-22T12:53:06.766Z,4.97
2019-02-22T12:55:39.112Z,6.80
2019-02-22T12:58:11.579Z,4.80
2019-02-22T13:00:43.931Z,4.77
2019-02-22T13:03:16.394Z,5.10
2019-02-22T13:05:48.796Z,4.27
2019-02-22T13:08:22.692Z,5.17
2019-02-22T13:10:55.413Z,5.20
2019-02-22T13:13:27.801Z,5.83
2019-02-22T13:16:00.224Z,5.37
2019-02-22T13:18:32.664Z,5.40
2019-02-22T13:21:05.043Z,5.40
2019-02-22T13:23:37.539Z,5.53
2019-02-22T13:26:09.968Z,5.70
2019-02-22T13:28:42.388Z,5.07
2019-02-22T13:31:14.865Z,5.47
2019-02-22T13:33:47.423Z,5.53
2019-02-22T13:36:19.907Z,6.03
2019-02-22T13:38:52.623Z,5.30
2019-02-22T13:41:25.217Z,5.07
2019-02-22T13:43:57.611Z,4.87
2019-02-22T13:46:30.019Z,5.60
2019-02-22T13:49:05.852Z,5.20
2019-02-22T13:51:42.209Z,4.80
2019-02-22T13:54:14.585Z,5.93
2019-02-22T13:56:48.165Z,5.30
2019-02-22T13:59:20.678Z,5.47
2019-02-22T14:01:53.441Z,5.47
2019-02-22T14:04:25.997Z,5.13
2019-02-22T14:06:58.659Z,5.77
2019-02-22T14:09:31.222Z,5.43
2019-02-22T14:12:03.672Z,5.13
2019-02-22T14:14:36.249Z,5.20
2019-02-22T14:17:08.946Z,5.83
2019-02-22T14:19:41.560Z,5.80
2019-02-22T14:22:14.099Z,6.40
2019-02-22T14:24:46.543Z,6.27
2019-02-22T14:27:18.922Z,5.57
2019-02-22T14:29:51.376Z,5.83
2019-02-22T14:32:23.891Z,5.43
2019-02-22T14:34:56.500Z,5.83
2019-02-22T14:37:29.946Z,5.90
2019-02-22T14:40:03.868Z,5.57
2019-02-22T14:42:37.480Z,5.67
2019-02-22T14:45:10.527Z,6.03
2019-02-22T14:47:42.903Z,5.13
2019-02-22T14:50:15.932Z,5.47
2019-02-22T14:52:48.329Z,5.43
2019-02-22T14:55:20.734Z,5.33
2019-02-22T14:57:53.146Z,5.83
2019-02-22T15:00:25.583Z,5.83
2019-02-22T15:02:58.011Z,6.00
2019-02-22T15:05:31.133Z,6.10
2019-02-22T15:08:04.064Z,5.30
2019-02-22T15:10:36.511Z,6.03
2019-02-22T15:13:12.526Z,5.07
2019-02-22T15:16:10.941Z,5.33
2019-02-22T15:18:43.733Z,5.57
2019-02-22T15:21:16.136Z,6.23
2019-02-22T15:23:48.541Z,5.63
2019-02-22T15:26:20.951Z,4.87
2019-02-22T15:28:53.444Z,5.50
2019-02-22T15:31:35.806Z,5.67
2019-02-22T15:34:00.052Z,5.73
2019-02-22T15:36:32.437Z,5.97
2019-02-22T15:39:05.892Z,5.80
2019-02-22T15:41:39.981Z,5.87
2019-02-22T15:44:12.412Z,5.47
2019-02-22T15:46:44.862Z,5.17
2019-02-22T15:49:17.300Z,5.60
2019-02-22T15:51:49.668Z,6.10
2019-02-22T15:54:22.185Z,5.63
2019-02-22T15:56:54.569Z,6.13
2019-02-22T15:59:26.974Z,5.67
2019-02-22T16:01:59.342Z,5.90
2019-02-22T16:04:48.162Z,6.37
2019-02-22T16:07:20.506Z,5.73
2019-02-22T16:09:52.903Z,6.17
2019-02-22T16:12:25.272Z,5.33
2019-02-22T16:14:57.671Z,6.13
2019-02-22T16:17:30.046Z,7.20
2019-02-22T16:20:02.455Z,7.03
2019-02-22T16:22:35.944Z,6.80
2019-02-22T16:25:18.719Z,6.43
2019-02-22T16:27:42.555Z,7.00
2019-02-22T16:30:16.536Z,6.27
2019-02-22T16:32:49.087Z,6.70
2019-02-22T16:35:21.432Z,7.27
2019-02-22T16:37:53.873Z,6.23
2019-02-22T16:40:26.328Z,6.40
2019-02-22T16:42:58.723Z,6.87
2019-02-22T16:45:31.132Z,7.17
2019-02-22T16:48:03.517Z,6.77
2019-02-22T16:50:35.909Z,7.07
2019-02-22T16:53:08.299Z,6.93
2019-02-22T16:55:40.697Z,7.07
2019-02-22T16:58:13.147Z,6.77
2019-02-22T17:00:45.587Z,6.53
2019-02-22T17:03:18.006Z,7.27
2019-02-22T17:05:50.446Z,7.33
2019-02-22T17:08:22.861Z,6.77
2019-02-22T17:10:55.269Z,6.47
2019-02-22T17:13:27.983Z,5.93
2019-02-22T17:16:00.599Z,6.73
2019-02-22T17:18:32.997Z,6.93
2019-02-22T17:21:05.473Z,7.10
2019-02-22T17:23:38.160Z,9.07
2019-02-22T17:26:15.427Z,8.20
2019-02-22T17:28:48.775Z,7.50
2019-02-22T17:31:21.207Z,9.07
2019-02-22T17:33:53.689Z,7.93
2019-02-22T17:36:27.312Z,7.70
2019-02-22T17:38:59.905Z,8.23
2019-02-22T17:41:32.474Z,9.23
2019-02-22T17:44:04.865Z,8.17
2019-02-22T17:46:37.318Z,8.07
2019-02-22T17:49:09.698Z,6.87
2019-02-22T17:51:42.081Z,6.83
2019-02-22T17:54:16.038Z,8.87
2019-02-22T17:56:48.664Z,10.43
2019-02-22T17:59:21.068Z,16.17
2019-02-22T18:01:53.691Z,16.83
2019-02-22T18:04:26.083Z,17.33
2019-02-22T18:06:58.504Z,15.33
2019-02-22T18:09:30.895Z,16.00
2019-02-22T18:12:03.303Z,16.23
2019-02-22T18:14:35.697Z,22.03
2019-02-22T18:17:12.161Z,19.77
2019-02-22T18:19:44.797Z,20.30
2019-02-22T18:22:25.372Z,17.13
2019-02-22T18:24:51.363Z,14.73
2019-02-22T18:27:23.785Z,13.20
2019-02-22T18:29:56.165Z,14.13
2019-02-22T18:32:28.570Z,13.43
2019-02-22T18:35:00.962Z,11.33
2019-02-22T18:37:33.569Z,12.10
2019-02-22T18:40:08.396Z,11.83
2019-02-22T18:42:40.937Z,11.60
2019-02-22T18:45:13.337Z,10.57
2019-02-22T18:47:45.749Z,12.03
2019-02-22T18:50:18.132Z,12.90
2019-02-22T18:52:50.472Z,12.40
2019-02-22T18:55:22.905Z,11.47
2019-02-22T18:57:56.391Z,11.77
2019-02-22T19:00:28.779Z,12.50
2019-02-22T19:03:01.224Z,11.90
2019-02-22T19:05:33.672Z,12.47
2019-02-22T19:08:06.101Z,12.07
2019-02-22T19:10:38.570Z,13.10
2019-02-22T19:13:10.978Z,11.77
2019-02-22T19:15:43.368Z,12.27
2019-02-22T19:18:15.808Z,12.90
2019-02-22T19:20:48.207Z,12.90
2019-02-22T19:23:20.618Z,13.10
2019-02-22T19:25:53.020Z,13.17
2019-02-22T19:28:25.441Z,12.50
2019-02-22T19:30:57.870Z,13.07
2019-02-22T19:33:30.290Z,13.67
2019-02-22T19:36:02.731Z,13.27
2019-02-22T19:38:35.043Z,12.53
2019-02-22T19:41:07.464Z,12.43
2019-02-22T19:43:39.867Z,13.27
2019-02-22T19:46:12.320Z,14.47
2019-02-22T19:48:44.711Z,13.50
2019-02-22T19:51:17.123Z,12.47
2019-02-22T19:53:49.505Z,12.20
2019-02-22T19:56:21.928Z,12.27
2019-02-22T19:58:54.391Z,12.53
2019-02-22T20:01:26.809Z,10.63
2019-02-22T20:03:59.212Z,11.67
2019-02-22T20:06:31.645Z,11.40
2019-02-22T20:09:05.427Z,11.63
2019-02-22T20:11:39.454Z,11.70
2019-02-22T20:14:11.876Z,12.53
2019-02-22T20:16:44.365Z,9.43
2019-02-22T20:19:16.736Z,10.27
2019-02-22T20:21:49.298Z,10.60
2019-02-22T20:24:21.777Z,10.37
2019-02-22T20:26:54.189Z,11.13
2019-02-22T20:29:26.614Z,10.90
2019-02-22T20:32:01.981Z,11.43
2019-02-22T20:34:34.449Z,10.17
2019-02-22T20:37:07.165Z,9.23
2019-02-22T20:39:39.547Z,10.60
2019-02-22T20:42:12.030Z,10.50
2019-02-22T20:44:44.485Z,9.07
2019-02-22T20:47:16.960Z,10.43
2019-02-22T20:49:49.343Z,9.97
2019-02-22T20:52:21.746Z,10.30
2019-02-22T20:54:54.145Z,10.17
2019-02-22T20:57:26.560Z,9.97
2019-02-22T20:59:59.023Z,9.53
2019-02-22T21:02:31.435Z,9.10
2019-02-22T21:05:03.873Z,8.40
2019-02-22T21:07:36.268Z,8.00
2019-02-22T21:10:12.020Z,6.30
2019-02-22T21:12:44.421Z,5.67
2019-02-22T21:15:16.810Z,5.53
2019-02-22T21:17:49.210Z,5.50
2019-02-22T21:20:22.803Z,4.70
2019-02-22T21:22:55.277Z,4.40
2019-02-22T21:25:27.653Z,4.40
2019-02-22T21:28:00.061Z,4.67
2019-02-22T21:30:32.460Z,4.33
2019-02-22T21:33:04.874Z,4.40
2019-02-22T21:35:37.282Z,4.40
2019-02-22T21:38:09.676Z,4.53
2019-02-22T21:40:42.056Z,4.07
2019-02-22T21:43:14.527Z,3.90
2019-02-22T21:45:46.905Z,4.07
2019-02-22T21:48:27.154Z,4.00
2019-02-22T21:50:53.485Z,3.70
2019-02-22T21:53:25.891Z,4.40
2019-02-22T21:55:58.255Z,5.00
2019-02-22T21:58:30.955Z,4.40
2019-02-22T22:01:03.337Z,4.90
2019-02-22T22:03:35.810Z,4.50
2019-02-22T22:06:08.190Z,4.70
2019-02-22T22:08:40.595Z,5.23
2019-02-22T22:11:12.970Z,4.53
2019-02-22T22:13:45.387Z,4.30
2019-02-22T22:16:17.778Z,4.77
2019-02-22T22:18:50.179Z,4.50
2019-02-22T22:21:22.560Z,4.80
2019-02-22T22:23:54.959Z,4.70
2019-02-22T22:26:27.339Z,4.53
2019-02-22T22:28:59.762Z,4.10
2019-02-22T22:31:32.143Z,4.10
2019-02-22T22:34:04.547Z,5.00
2019-02-22T22:36:36.951Z,4.70
2019-02-22T22:39:09.358Z,4.93
2019-02-22T22:41:41.807Z,4.83
2019-02-22T22:44:14.206Z,5.00
2019-02-22T22:46:46.583Z,5.03
2019-02-22T22:49:18.996Z,4.60
2019-02-22T22:51:51.301Z,4.70
2019-02-22T22:54:23.914Z,5.23
2019-02-22T22:56:56.278Z,5.33
2019-02-22T22:59:28.683Z,5.60
2019-02-22T23:02:01.172Z,4.80
2019-02-22T23:04:33.960Z,5.23
2019-02-22T23:07:06.344Z,5.63
2019-02-22T23:09:38.822Z,5.87
2019-02-22T23:12:11.403Z,5.50
2019-02-22T23:14:43.859Z,5.33
2019-02-22T23:17:16.238Z,5.30
2019-02-22T23:19:48.644Z,5.70
2019-02-22T23:22:21.032Z,6.13
2019-02-22T23:24:53.429Z,5.63
2019-02-22T23:27:25.821Z,6.70
2019-02-22T23:29:58.157Z,5.50
2019-02-22T23:32:30.462Z,5.57
2019-02-22T23:35:02.901Z,6.00
2019-02-22T23:37:35.283Z,6.73
2019-02-22T23:40:07.681Z,6.93
2019-02-22T23:42:40.056Z,7.13
2019-02-22T23:45:12.452Z,6.47
2019-02-22T23:47:44.822Z,7.03
2019-02-22T23:50:17.218Z,6.13
2019-02-22T23:52:49.589Z,6.57
2019-02-22T23:55:22.007Z,6.93
2019-02-22T23:57:54.386Z,6.03
